Time;durP1;ratioP1;P1;durP2;ratioP2;P2;SDS_P1;SDS_P2;PMS_P1;PMS_P2;Temp;Humidity;BMP_temperature;BMP_pressure;BME280_temperature;BME280_humidity;BME280_pressure;Samples;Min_cycle;Max_cycle;Signal;HPM_P1;HPM_P2
2022/10/19 00:03:47;;;;;;;0.00;0.00;;;;;;;16.93;69.69;98959.84;8221966;28;20248;-76
2022/10/19 00:07:54;;;;;;;0.00;0.00;;;;;;;16.92;68.92;98973.84;8222010;28;20235;-77
2022/10/19 00:11:59;;;;;;;0.00;0.00;;;;;;;16.95;69.69;98965.00;8222048;28;20239;-77
2022/10/19 00:16:02;;;;;;;0.00;0.00;;;;;;;16.95;69.03;98963.22;8221467;28;20238;-78
2022/10/19 00:20:09;;;;;;;0.00;0.00;;;;;;;16.91;68.67;98958.25;8221631;28;20239;-78
2022/10/19 00:24:12;;;;;;;0.00;0.00;;;;;;;16.83;68.73;98960.44;8221468;28;20242;-79
2022/10/19 00:28:16;;;;;;;0.00;0.00;;;;;;;16.82;69.20;98951.75;8221596;28;20231;-79
2022/10/19 00:32:19;;;;;;;0.00;0.00;;;;;;;16.86;68.32;98957.66;8221238;28;20254;-79
2022/10/19 00:36:25;;;;;;;0.00;0.00;;;;;;;16.84;68.20;98964.75;8220368;28;20234;-78
2022/10/19 00:40:27;;;;;;;0.00;0.00;;;;;;;16.79;68.88;98965.81;8220989;28;20232;-79
2022/10/19 00:45:05;;;;;;;0.00;0.00;;;;;;;16.79;68.75;98972.78;8221037;28;20250;-79
2022/10/19 00:49:10;;;;;;;0.00;0.00;;;;;;;16.78;68.88;98968.50;8220631;28;20545;-79
2022/10/19 00:53:13;;;;;;;0.00;0.00;;;;;;;16.74;68.99;98959.97;8220747;28;20274;-78
2022/10/19 00:57:16;;;;;;;0.07;0.07;;;;;;;16.69;68.74;98971.59;8220659;28;20237;-79
2022/10/19 01:01:22;;;;;;;0.00;0.00;;;;;;;16.72;69.16;98971.47;8220118;28;20288;-79
2022/10/19 01:05:25;;;;;;;0.10;0.10;;;;;;;16.66;68.99;98977.00;8253411;23;20290;-73
2022/10/19 01:09:28;;;;;;;0.00;0.00;;;;;;;16.66;69.52;98962.16;8220397;29;20278;-73
2022/10/19 01:13:37;;;;;;;0.00;0.00;;;;;;;16.63;69.01;98964.09;8220283;29;20554;-73
2022/10/19 01:17:48;;;;;;;0.00;0.00;;;;;;;16.69;68.90;98964.59;8251618;28;20518;-73
2022/10/19 01:21:54;;;;;;;0.00;0.00;;;;;;;16.64;68.86;98960.53;8251582;28;20557;-73
2022/10/19 01:26:04;;;;;;;0.00;0.00;;;;;;;16.70;68.63;98949.78;8251700;28;20229;-73
2022/10/19 01:30:13;;;;;;;0.20;0.20;;;;;;;16.58;69.23;98956.47;8251458;28;20234;-73
2022/10/19 01:34:19;;;;;;;0.07;0.07;;;;;;;16.64;68.60;98956.19;8251659;28;20226;-73
2022/10/19 01:38:27;;;;;;;0.00;0.00;;;;;;;16.49;68.77;98957.00;8251085;28;20241;-73
2022/10/19 01:42:32;;;;;;;0.00;0.00;;;;;;;16.44;69.04;98954.59;8250987;28;20245;-73
2022/10/19 01:46:38;;;;;;;0.00;0.00;;;;;;;16.45;68.74;98956.31;8250739;28;20261;-73
2022/10/19 01:50:45;;;;;;;0.00;0.00;;;;;;;16.45;68.20;98947.59;8250149;28;20234;-73
2022/10/19 01:54:50;;;;;;;0.00;0.00;;;;;;;16.49;68.27;98941.31;8251018;28;20391;-73
2022/10/19 01:58:54;;;;;;;0.00;0.00;;;;;;;16.45;68.67;98938.00;8249936;28;20402;-73
2022/10/19 02:03:01;;;;;;;0.00;0.00;;;;;;;16.48;69.40;98931.75;8249596;28;20300;-73
2022/10/19 02:07:04;;;;;;;0.00;0.00;;;;;;;16.42;68.95;98928.53;8249471;28;20517;-73
2022/10/19 02:11:07;;;;;;;0.03;0.03;;;;;;;16.41;69.65;98920.78;8249732;28;20234;-73
2022/10/19 02:15:13;;;;;;;0.10;0.10;;;;;;;16.47;69.17;98920.47;8249770;28;20289;-73
2022/10/19 02:19:18;;;;;;;0.00;0.00;;;;;;;16.49;68.85;98912.53;8249589;28;20510;-74
2022/10/19 02:23:24;;;;;;;0.00;0.00;;;;;;;16.39;68.18;98909.56;8249346;28;20403;-73
2022/10/19 02:27:27;;;;;;;0.03;0.03;;;;;;;16.39;68.86;98909.56;8249302;28;20258;-74
2022/10/19 02:31:30;;;;;;;0.00;0.00;;;;;;;16.36;68.69;98910.56;8249265;28;20249;-74
2022/10/19 02:35:34;;;;;;;0.00;0.00;;;;;;;16.35;68.37;98908.03;8248998;28;20308;-73
2022/10/19 02:39:37;;;;;;;0.00;0.00;;;;;;;16.32;68.13;98901.22;8249019;28;20233;-74
2022/10/19 02:43:42;;;;;;;0.00;0.00;;;;;;;16.35;68.70;98902.81;8248581;28;20269;-73
2022/10/19 02:47:48;;;;;;;0.00;0.00;;;;;;;16.34;69.15;98896.75;8248893;28;20357;-73
2022/10/19 02:52:00;;;;;;;0.00;0.00;;;;;;;16.36;69.52;98899.28;8248580;28;20431;-74
2022/10/19 02:56:03;;;;;;;0.00;0.00;;;;;;;16.30;68.91;98895.22;8249032;28;20539;-73
2022/10/19 03:00:10;;;;;;;0.00;0.00;;;;;;;16.31;68.81;98901.28;8252115;28;20540;-73
2022/10/19 03:04:13;;;;;;;0.03;0.03;;;;;;;16.32;69.64;98895.97;8255053;28;20423;-74
2022/10/19 03:08:18;;;;;;;0.00;0.00;;;;;;;16.35;68.95;98898.41;8254777;28;20230;-73
2022/10/19 03:12:20;;;;;;;0.00;0.00;;;;;;;16.32;69.19;98890.75;8255098;28;20296;-74
2022/10/19 03:16:23;;;;;;;0.00;0.00;;;;;;;16.36;68.76;98897.50;8254703;28;20321;-74
2022/10/19 03:20:26;;;;;;;0.00;0.00;;;;;;;16.40;68.08;98901.63;8254599;28;20262;-73
2022/10/19 03:24:31;;;;;;;0.00;0.00;;;;;;;16.38;68.04;98893.03;8253471;28;20242;-74
2022/10/19 03:28:34;;;;;;;0.00;0.00;;;;;;;16.38;67.63;98887.81;8254555;28;20233;-73
2022/10/19 03:32:37;;;;;;;0.00;0.00;;;;;;;16.44;68.18;98889.25;8254055;28;20234;-74
2022/10/19 03:36:40;;;;;;;0.00;0.00;;;;;;;16.39;67.93;98893.88;8253818;28;20481;-73
2022/10/19 03:40:45;;;;;;;0.00;0.00;;;;;;;16.39;68.31;98886.03;8253815;28;20300;-73
2022/10/19 03:44:47;;;;;;;0.00;0.00;;;;;;;16.40;68.26;98887.72;8254164;28;20530;-73
2022/10/19 03:48:50;;;;;;;0.00;0.00;;;;;;;16.36;68.26;98894.88;8253816;28;20285;-74
2022/10/19 03:52:54;;;;;;;0.00;0.00;;;;;;;16.38;67.74;98895.66;8253697;28;20241;-73
2022/10/19 03:56:58;;;;;;;0.00;0.00;;;;;;;16.37;67.82;98890.50;8254046;28;22523;-73
2022/10/19 04:01:02;;;;;;;0.00;0.00;;;;;;;16.38;67.66;98889.56;8254115;28;20288;-73
2022/10/19 04:05:05;;;;;;;0.00;0.00;;;;;;;16.32;68.22;98897.75;8253503;28;20242;-73
2022/10/19 04:09:10;;;;;;;0.00;0.00;;;;;;;16.33;67.87;98891.59;8253327;28;20241;-73
2022/10/19 04:13:15;;;;;;;0.00;0.00;;;;;;;16.34;68.10;98888.06;8252611;28;20393;-73
2022/10/19 04:17:17;;;;;;;0.00;0.00;;;;;;;16.26;68.18;98887.59;8253437;28;20439;-73
2022/10/19 04:21:22;;;;;;;0.00;0.00;;;;;;;16.34;67.71;98883.66;8253241;28;20242;-73
2022/10/19 04:25:25;;;;;;;0.00;0.00;;;;;;;16.22;68.42;98882.56;8253067;28;20251;-73
2022/10/19 04:29:29;;;;;;;0.00;0.00;;;;;;;16.22;68.94;98885.16;8252939;28;20226;-73
2022/10/19 04:33:33;;;;;;;0.00;0.00;;;;;;;16.26;68.73;98890.22;8252786;28;20246;-74
2022/10/19 04:37:35;;;;;;;0.00;0.00;;;;;;;16.17;68.72;98881.09;8252927;28;20241;-73
2022/10/19 04:41:38;;;;;;;0.00;0.00;;;;;;;16.21;68.24;98888.69;8252653;28;20435;-73
2022/10/19 04:45:42;;;;;;;0.00;0.00;;;;;;;16.18;68.86;98890.63;8252556;28;20238;-73
2022/10/19 04:49:45;;;;;;;0.00;0.00;;;;;;;16.19;68.49;98889.72;8252186;28;20288;-73
2022/10/19 04:53:48;;;;;;;0.00;0.00;;;;;;;16.19;68.81;98885.31;8252172;28;20251;-72
2022/10/19 04:57:51;;;;;;;0.00;0.00;;;;;;;16.24;68.81;98887.72;8252332;28;20238;-73
2022/10/19 05:01:55;;;;;;;0.10;0.10;;;;;;;16.15;68.98;98881.19;8251869;28;20242;-73
2022/10/19 05:05:59;;;;;;;0.00;0.00;;;;;;;16.16;68.97;98885.50;8251740;28;20249;-73
2022/10/19 05:10:01;;;;;;;0.00;0.00;;;;;;;16.15;68.78;98878.56;8251910;28;20230;-73
2022/10/19 05:14:04;;;;;;;0.00;0.00;;;;;;;16.13;68.71;98883.03;8251494;28;20234;-73
2022/10/19 05:18:08;;;;;;;0.00;0.00;;;;;;;16.18;68.80;98882.78;8251787;28;20226;-72
2022/10/19 05:22:11;;;;;;;0.10;0.10;;;;;;;16.08;69.04;98877.19;8251188;28;20245;-72
2022/10/19 05:26:16;;;;;;;0.10;0.10;;;;;;;16.09;68.89;98875.41;8251222;28;20374;-73
2022/10/19 05:30:20;;;;;;;0.00;0.00;;;;;;;16.10;68.58;98883.19;8277895;23;20229;-80
2022/10/19 05:34:24;;;;;;;0.00;0.00;;;;;;;16.06;68.94;98881.66;8236001;28;20231;-81
2022/10/19 05:38:29;;;;;;;0.00;0.00;;;;;;;16.02;68.49;98883.59;8249753;28;20230;-82
2022/10/19 05:42:32;;;;;;;0.00;0.00;;;;;;;16.04;68.59;98886.13;8250842;28;20242;-82
2022/10/19 05:46:35;;;;;;;0.10;0.10;;;;;;;15.92;68.60;98884.16;8250577;28;20241;-81
2022/10/19 05:50:39;;;;;;;0.10;0.10;;;;;;;15.95;68.55;98886.59;8234645;28;20227;-78
2022/10/19 05:54:42;;;;;;;0.10;0.10;;;;;;;15.95;68.66;98884.81;8234756;28;20339;-82
2022/10/19 05:58:45;;;;;;;0.00;0.00;;;;;;;16.00;68.18;98882.00;8234319;28;20239;-80
2022/10/19 06:02:47;;;;;;;0.00;0.00;;;;;;;16.05;68.54;98890.44;8234348;28;20239;-79
2022/10/19 06:06:51;;;;;;;0.00;0.00;;;;;;;16.00;68.51;98888.06;8234301;28;20242;-80
2022/10/19 06:11:05;;;;;;;0.00;0.00;;;;;;;16.03;67.91;98890.50;8214757;28;20239;-81
2022/10/19 06:15:08;;;;;;;0.00;0.00;;;;;;;15.98;68.68;98899.50;8186562;29;20228;-81
2022/10/19 06:19:11;;;;;;;0.00;0.00;;;;;;;16.08;68.27;98905.94;8186603;29;20235;-80
2022/10/19 06:23:15;;;;;;;0.00;0.00;;;;;;;16.09;68.46;98902.41;8186161;29;20503;-80
2022/10/19 06:27:17;;;;;;;0.00;0.00;;;;;;;16.06;68.57;98904.34;8186527;29;20242;-80
2022/10/19 06:31:20;;;;;;;0.00;0.00;;;;;;;16.10;68.40;98919.75;8185819;29;20299;-82
2022/10/19 06:35:23;;;;;;;0.00;0.00;;;;;;;16.11;68.00;98908.41;8185428;29;20530;-81
2022/10/19 06:39:27;;;;;;;0.10;0.10;;;;;;;16.06;68.49;98914.78;8186067;29;20235;-81
2022/10/19 06:43:30;;;;;;;0.00;0.00;;;;;;;16.13;68.30;98916.16;8185370;29;20239;-79
2022/10/19 06:47:34;;;;;;;0.10;0.10;;;;;;;16.14;68.20;98920.44;8186029;29;20346;-81
2022/10/19 06:51:37;;;;;;;0.10;0.10;;;;;;;16.09;67.99;98914.63;8185969;29;20243;-80
2022/10/19 06:55:41;;;;;;;0.00;0.00;;;;;;;16.15;67.67;98914.31;8201251;28;20232;-79
2022/10/19 06:59:44;;;;;;;0.00;0.00;;;;;;;16.10;68.11;98906.69;8185821;29;20242;-83
2022/10/19 07:03:50;;;;;;;0.00;0.00;;;;;;;16.13;67.99;98917.00;8185583;29;20537;-80
2022/10/19 07:07:53;;;;;;;0.00;0.00;;;;;;;16.08;68.50;98919.00;8185582;29;20235;-81
2022/10/19 07:11:57;;;;;;;0.00;0.00;;;;;;;16.10;68.40;98919.75;8186096;29;20323;-80
2022/10/19 07:16:04;;;;;;;0.00;0.00;;;;;;;16.18;68.31;98930.69;8185489;29;20234;-81
2022/10/19 07:20:07;;;;;;;0.00;0.00;;;;;;;16.16;68.31;98934.28;8185333;29;20231;-81
2022/10/19 07:24:10;;;;;;;0.00;0.00;;;;;;;16.19;68.18;98937.59;8185570;29;20235;-81
2022/10/19 07:28:14;;;;;;;0.00;0.00;;;;;;;16.23;67.45;98944.34;8185259;29;20542;-81
2022/10/19 07:32:17;;;;;;;0.10;0.10;;;;;;;16.16;68.01;98945.59;8185346;29;20263;-81
2022/10/19 07:36:20;;;;;;;0.10;0.10;;;;;;;16.09;67.96;98944.22;8184905;29;20243;-80
2022/10/19 07:40:22;;;;;;;0.10;0.10;;;;;;;16.09;67.76;98941.63;8185224;29;20243;-81
2022/10/19 07:44:27;;;;;;;0.10;0.10;;;;;;;16.16;67.81;98940.38;8184613;29;20377;-81
2022/10/19 07:48:30;;;;;;;0.00;0.00;;;;;;;16.18;67.72;98941.13;8190679;29;20459;-80
2022/10/19 07:52:32;;;;;;;0.00;0.00;;;;;;;16.00;68.25;98948.13;8191597;29;20235;-82
2022/10/19 07:56:38;;;;;;;0.00;0.00;;;;;;;16.15;68.38;98951.75;8206891;28;20247;-81
2022/10/19 08:00:42;;;;;;;0.00;0.00;;;;;;;16.15;67.56;98943.06;8191536;29;20239;-80
2022/10/19 08:04:45;;;;;;;0.00;0.00;;;;;;;16.15;67.45;98950.91;8191445;29;20240;-80
2022/10/19 08:09:08;;;;;;;0.10;0.10;;;;;;;15.92;67.07;98952.91;8191097;29;20320;-82
2022/10/19 08:13:17;;;;;;;0.00;0.00;;;;;;;16.01;67.83;98959.41;8190892;29;20236;-82
2022/10/19 08:17:21;;;;;;;0.00;0.00;;;;;;;16.08;67.18;98960.81;8190476;29;20238;-82
2022/10/19 08:21:24;;;;;;;0.00;0.00;;;;;;;16.13;67.08;98958.81;8190631;29;20235;-81
2022/10/19 08:25:27;;;;;;;0.00;0.00;;;;;;;16.03;67.79;98965.44;8190505;29;20246;-81
2022/10/19 08:29:30;;;;;;;0.00;0.00;;;;;;;16.00;67.25;98962.97;8190308;29;20235;-81
2022/10/19 08:33:35;;;;;;;0.00;0.00;;;;;;;16.06;67.71;98962.66;8191284;29;20267;-83
2022/10/19 08:37:37;;;;;;;0.00;0.00;;;;;;;16.00;67.46;98958.59;8205966;28;20290;-82
2022/10/19 08:41:55;;;;;;;0.00;0.00;;;;;;;16.18;67.06;98951.59;8197357;28;20236;-81
2022/10/19 08:46:02;;;;;;;0.00;0.00;;;;;;;16.32;66.74;98940.41;8190822;29;20243;-81
2022/10/19 08:50:17;;;;;;;0.00;0.00;;;;;;;16.16;65.94;98942.13;8189560;29;20231;-82
2022/10/19 08:54:20;;;;;;;0.00;0.00;;;;;;;16.33;66.50;98943.84;8190684;29;20235;-80
2022/10/19 08:58:32;;;;;;;0.00;0.00;;;;;;;16.39;65.63;98952.25;8189885;29;20236;-85
2022/10/19 09:02:46;;;;;;;0.00;0.00;;;;;;;17.38;72.84;98954.75;8190100;29;20247;-84
2022/10/19 09:06:59;;;;;;;0.00;0.00;;;;;;;17.57;71.13;98962.41;8203921;28;20239;-82
2022/10/19 09:11:01;;;;;;;0.00;0.00;;;;;;;17.65;68.57;98954.97;8189903;29;20521;-79
2022/10/19 09:15:06;;;;;;;0.00;0.00;;;;;;;17.20;62.51;98962.72;8189867;29;20511;-85
2022/10/19 09:19:13;;;;;;;0.00;0.00;;;;;;;17.05;63.68;98963.56;8189109;29;20227;-81
2022/10/19 09:23:23;;;;;;;0.00;0.00;;;;;;;16.71;63.93;98972.38;8188876;29;20235;-83
2022/10/19 09:27:28;;;;;;;0.00;0.00;;;;;;;16.91;64.85;98976.56;8188437;29;20260;-80
2022/10/19 09:31:33;;;;;;;0.00;0.00;;;;;;;16.69;64.25;98972.44;8188405;29;20243;-81
2022/10/19 09:35:44;;;;;;;0.00;0.00;;;;;;;16.49;65.16;98985.75;8203074;28;20235;-78
2022/10/19 09:39:48;;;;;;;0.00;0.00;;;;;;;16.70;64.44;98978.53;8187744;29;20260;-77
2022/10/19 09:43:57;;;;;;;0.00;0.00;;;;;;;16.65;64.65;98985.78;8187490;29;20241;-79
2022/10/19 09:48:01;;;;;;;0.00;0.00;;;;;;;16.73;64.14;98980.97;8187709;29;20259;-78
2022/10/19 09:52:29;;;;;;;0.00;0.00;;;;;;;16.70;63.57;98982.00;8187734;29;20472;-81
2022/10/19 09:56:39;;;;;;;0.00;0.00;;;;;;;16.60;63.81;98970.31;8187888;29;20283;-81
2022/10/19 10:00:43;;;;;;;0.00;0.00;;;;;;;16.71;64.27;98974.97;8202354;28;20243;-81
2022/10/19 10:04:47;;;;;;;0.00;0.00;;;;;;;16.77;64.10;98969.41;8187437;29;20231;-83
2022/10/19 10:08:56;;;;;;;0.00;0.00;;;;;;;16.88;64.18;98961.03;8186686;29;20235;-81
2022/10/19 10:13:01;;;;;;;0.10;0.10;;;;;;;16.87;63.85;98962.81;8187802;29;20347;-81
2022/10/19 10:17:05;;;;;;;0.00;0.00;;;;;;;16.69;63.28;98954.13;8187921;29;20257;-82
2022/10/19 10:21:12;;;;;;;0.00;0.00;;;;;;;16.81;64.12;98957.84;8188035;29;20520;-81
2022/10/19 10:25:18;;;;;;;0.00;0.00;;;;;;;16.76;63.85;98952.06;8187310;29;20236;-83
2022/10/19 10:29:24;;;;;;;0.00;0.00;;;;;;;16.67;63.89;98950.75;8187853;29;20243;-83
2022/10/19 10:33:28;;;;;;;0.00;0.00;;;;;;;16.86;63.69;98941.97;8187938;29;20243;-83
2022/10/19 10:37:48;;;;;;;0.00;0.00;;;;;;;17.02;62.44;98936.72;8201636;28;20239;-80
2022/10/19 10:41:51;;;;;;;0.00;0.00;;;;;;;17.17;62.25;98935.88;8186983;29;20231;-81
2022/10/19 10:45:55;;;;;;;0.00;0.00;;;;;;;16.93;62.75;98938.09;8188261;29;20246;-82
2022/10/19 10:50:00;;;;;;;0.00;0.00;;;;;;;17.24;61.93;98916.28;8187682;29;20335;-85
2022/10/19 10:54:12;;;;;;;0.00;0.00;;;;;;;16.78;62.63;98917.03;8187126;29;20231;-85
2022/10/19 10:58:18;;;;;;;0.00;0.00;;;;;;;16.70;63.42;98914.00;8187578;29;20227;-87
2022/10/19 11:02:32;;;;;;;0.00;0.00;;;;;;;17.23;62.33;98917.22;8187021;29;20231;-84
2022/10/19 11:06:42;;;;;;;0.00;0.00;;;;;;;16.93;62.81;98912.75;8186266;29;20304;-81
2022/10/19 11:10:50;;;;;;;0.00;0.00;;;;;;;16.96;62.84;98912.59;8201004;28;20515;-85
2022/10/19 11:14:56;;;;;;;0.00;0.00;;;;;;;16.89;62.99;98905.19;8186228;29;20625;-86
2022/10/19 11:19:07;;;;;;;0.00;0.00;;;;;;;16.84;63.43;98899.34;8186075;29;20254;-84
2022/10/19 11:23:15;;;;;;;0.00;0.00;;;;;;;17.06;63.88;98892.00;8192334;29;20358;-89
2022/10/19 11:27:24;;;;;;;0.00;0.00;;;;;;;17.22;62.84;98894.56;8193033;29;20232;-86
2022/10/19 11:31:35;;;;;;;0.00;0.00;;;;;;;17.08;63.49;98884.91;8192599;29;20512;-86
2022/10/19 11:35:48;;;;;;;0.00;0.00;;;;;;;17.26;62.75;98885.63;8208400;28;20236;-86
2022/10/19 11:40:00;;;;;;;0.10;0.10;;;;;;;17.18;63.27;98875.59;8192066;29;20240;-84
2022/10/19 11:44:18;;;;;;;0.00;0.00;;;;;;;17.08;62.85;98868.38;8191757;29;20255;-86
2022/10/19 11:48:40;;;;;;;0.00;0.00;;;;;;;17.00;62.70;98869.63;8191944;29;20235;-87
2022/10/19 11:52:51;;;;;;;0.00;0.00;;;;;;;17.17;62.50;98871.28;8199247;28;20242;-86
2022/10/19 11:56:58;;;;;;;0.00;0.00;;;;;;;17.36;61.81;98873.69;8191425;29;20251;-87
2022/10/19 12:01:14;;;;;;;0.00;0.00;;;;;;;17.39;61.87;98863.03;8191401;29;20274;-85
2022/10/19 12:05:20;;;;;;;0.00;0.00;;;;;;;17.39;62.43;98855.19;8192683;29;20240;-85
2022/10/19 12:09:39;;;;;;;0.00;0.00;;;;;;;17.36;61.53;98847.53;8191704;29;20232;-87
2022/10/19 12:13:49;;;;;;;0.00;0.00;;;;;;;17.50;61.71;98843.25;8223417;28;20231;-87
2022/10/19 12:17:53;;;;;;;0.00;0.00;;;;;;;17.44;61.78;98840.97;8223450;28;20442;-83
2022/10/19 12:22:00;;;;;;;0.00;0.00;;;;;;;17.52;62.28;98830.91;8223210;28;20243;-87
2022/10/19 12:26:07;;;;;;;0.00;0.00;;;;;;;17.62;61.84;98828.59;8223596;28;20231;-88
2022/10/19 12:30:14;;;;;;;0.00;0.00;;;;;;;17.65;60.92;98825.75;8222122;28;20240;-80
2022/10/19 12:34:26;;;;;;;0.00;0.00;;;;;;;17.73;60.46;98821.75;8221358;28;20240;-81
2022/10/19 12:38:35;;;;;;;0.00;0.00;;;;;;;17.81;60.65;98810.81;8221992;28;20296;-81
2022/10/19 12:42:51;;;;;;;0.00;0.00;;;;;;;18.05;59.30;98812.91;8197720;28;20259;-79
2022/10/19 12:46:59;;;;;;;0.00;0.00;;;;;;;18.19;59.10;98807.66;8189378;29;20236;-81
2022/10/19 12:51:10;;;;;;;0.00;0.00;;;;;;;18.04;59.01;98804.22;8189598;29;20233;-81
2022/10/19 12:55:25;;;;;;;0.00;0.00;;;;;;;18.25;59.46;98799.41;8189547;29;20240;-81
2022/10/19 12:59:31;;;;;;;0.00;0.00;;;;;;;18.80;58.39;98791.59;8189612;29;20555;-80
2022/10/19 13:03:35;;;;;;;0.00;0.00;;;;;;;19.02;57.14;98786.66;8189532;29;20260;-82
2022/10/19 13:07:37;;;;;;;0.00;0.00;;;;;;;19.50;56.66;98776.41;8204213;28;20242;-77
2022/10/19 13:12:26;;;;;;;0.00;0.00;;;;;;;19.91;55.06;98764.88;8189045;29;20236;-80
2022/10/19 13:16:56;;;;;;;0.00;0.00;;;;;;;20.25;54.09;98769.53;8189044;29;20241;-80
2022/10/19 13:20:59;;;;;;;0.00;0.00;;;;;;;20.30;52.74;98777.94;8188689;29;20234;-82
2022/10/19 13:25:32;;;;;;;0.00;0.00;;;;;;;20.65;52.82;98764.03;8188652;29;20477;-79
2022/10/19 13:29:41;;;;;;;0.00;0.00;;;;;;;20.79;52.07;98761.25;8188192;29;20439;-78
2022/10/19 13:33:48;;;;;;;0.00;0.00;;;;;;;20.77;50.25;98757.91;8202794;28;20242;-79
2022/10/19 13:38:28;;;;;;;0.00;0.00;;;;;;;20.92;51.17;98748.00;8188174;29;20238;-82
2022/10/19 13:42:31;;;;;;;0.00;0.00;;;;;;;21.02;50.09;98754.28;8186137;29;20569;-86
2022/10/19 13:46:47;;;;;;;0.00;0.00;;;;;;;21.02;50.01;98743.75;8189061;29;20250;-84
2022/10/19 13:50:54;;;;;;;0.00;0.00;;;;;;;21.12;49.52;98743.88;8196414;28;20542;-84
2022/10/19 13:55:24;;;;;;;0.00;0.00;;;;;;;20.79;48.54;98734.94;8188434;29;20512;-84
2022/10/19 14:00:01;;;;;;;0.00;0.00;;;;;;;20.91;48.42;98738.44;8188858;29;20405;-86
2022/10/19 14:04:14;;;;;;;0.00;0.00;;;;;;;20.86;48.53;98733.50;8201682;28;20238;-83
2022/10/19 14:08:32;;;;;;;0.00;0.00;;;;;;;21.07;49.30;98728.41;8188571;29;20231;-84
2022/10/19 14:12:37;;;;;;;0.00;0.00;;;;;;;21.04;48.95;98720.75;8189182;29;20245;-85
2022/10/19 14:16:50;;;;;;;0.00;0.00;;;;;;;21.15;49.95;98725.22;8195738;28;20242;-85
2022/10/19 14:20:57;;;;;;;0.00;0.00;;;;;;;21.17;49.33;98707.50;8188081;29;20589;-87
2022/10/19 14:25:04;;;;;;;0.00;0.00;;;;;;;21.12;48.75;98706.19;8191594;29;20246;-84
2022/10/19 14:29:06;;;;;;;0.00;0.00;;;;;;;20.67;49.08;98702.44;8187980;29;20242;-87
2022/10/19 14:33:13;;;;;;;0.00;0.00;;;;;;;20.98;49.05;98696.69;8187673;29;20239;-85
2022/10/19 14:37:18;;;;;;;0.00;0.00;;;;;;;20.73;50.01;98682.72;8187245;29;20235;-85
2022/10/19 14:41:30;;;;;;;0.00;0.00;;;;;;;20.55;50.49;98681.44;8186985;29;20236;-85
2022/10/19 14:45:33;;;;;;;0.00;0.00;;;;;;;20.33;50.36;98684.81;8186971;29;20305;-84
2022/10/19 14:49:36;;;;;;;0.00;0.00;;;;;;;20.19;51.71;98691.09;8186959;29;20539;-79
2022/10/19 14:53:40;;;;;;;0.00;0.00;;;;;;;20.04;51.76;98688.59;8201991;28;20518;-79
2022/10/19 14:57:47;;;;;;;0.00;0.00;;;;;;;19.67;51.21;98690.34;8192406;29;20266;-82
2022/10/19 15:01:53;;;;;;;0.00;0.00;;;;;;;19.72;52.88;98693.50;8192890;29;20261;-79
2022/10/19 15:06:00;;;;;;;0.00;0.00;;;;;;;19.65;52.81;98694.88;8192156;29;20307;-79
2022/10/19 15:10:05;;;;;;;0.00;0.00;;;;;;;19.49;54.20;98690.66;8192449;29;20315;-78
2022/10/19 15:14:14;;;;;;;0.00;0.00;;;;;;;19.29;52.09;98686.81;8192749;29;20381;-79
2022/10/19 15:18:18;;;;;;;0.00;0.00;;;;;;;19.24;54.16;98682.81;8192560;29;20235;-81
2022/10/19 15:22:42;;;;;;;0.00;0.00;;;;;;;19.12;54.41;98679.25;8206650;28;20429;-81
2022/10/19 15:26:50;;;;;;;0.00;0.00;;;;;;;19.06;54.75;98675.25;8191991;29;20563;-80
2022/10/19 15:31:17;;;;;;;0.00;0.00;;;;;;;18.94;54.71;98660.31;8191876;29;20544;-80
2022/10/19 15:35:23;;;;;;;0.00;0.00;;;;;;;18.69;55.29;98664.56;8191965;29;20491;-81
2022/10/19 15:39:31;;;;;;;0.00;0.00;;;;;;;18.68;55.82;98654.19;8192250;29;20536;-80
2022/10/19 15:43:47;;;;;;;0.00;0.00;;;;;;;18.55;56.36;98648.91;8206476;28;20229;-79
2022/10/19 15:48:14;;;;;;;0.00;0.00;;;;;;;18.47;56.88;98651.22;8191573;29;20235;-82
2022/10/19 15:52:19;;;;;;;0.00;0.00;;;;;;;18.40;57.41;98647.31;8191786;29;20236;-90
2022/10/19 15:56:24;;;;;;;0.00;0.00;;;;;;;18.28;58.29;98643.72;8191371;29;20265;-85
2022/10/19 16:00:29;;;;;;;0.00;0.00;;;;;;;18.16;58.68;98655.81;8192991;29;20241;-86
2022/10/19 16:04:33;;;;;;;0.00;0.00;;;;;;;18.08;59.03;98645.81;8195358;29;20242;-83
2022/10/19 16:08:36;;;;;;;0.00;0.00;;;;;;;17.96;58.85;98642.22;8190203;29;20247;-83
2022/10/19 16:12:39;;;;;;;0.00;0.00;;;;;;;17.94;59.94;98649.34;8206194;28;20238;-84
2022/10/19 16:16:42;;;;;;;0.00;0.00;;;;;;;17.80;60.04;98646.72;8191566;29;20236;-86
2022/10/19 16:20:46;;;;;;;0.00;0.00;;;;;;;17.71;58.45;98647.31;8190918;29;20247;-87
2022/10/19 16:24:48;;;;;;;0.00;0.00;;;;;;;17.63;57.61;98642.53;8190963;29;20240;-84
2022/10/19 16:28:51;;;;;;;0.00;0.00;;;;;;;17.48;56.14;98638.25;8190706;29;20239;-88
2022/10/19 16:32:54;;;;;;;0.00;0.00;;;;;;;17.47;56.02;98639.19;8192515;29;20304;-91
2022/10/19 16:36:58;;;;;;;0.00;0.00;;;;;;;17.35;56.55;98638.19;8195319;29;20242;-89
2022/10/19 16:41:09;;;;;;;0.00;0.00;;;;;;;17.33;56.80;98645.28;8194718;29;20233;-91
2022/10/19 16:45:12;;;;;;;0.00;0.00;;;;;;;17.16;56.02;98648.91;8192267;29;20234;-90
2022/10/19 16:49:14;;;;;;;0.00;0.00;;;;;;;17.17;57.20;98651.44;8193954;29;20531;-95
2022/10/19 16:53:19;;;;;;;0.00;0.00;;;;;;;17.13;57.31;98654.31;8194541;29;20232;-90
2022/10/19 16:57:22;;;;;;;0.00;0.00;;;;;;;17.11;57.15;98656.19;8190266;29;20236;-93
2022/10/19 17:01:25;;;;;;;0.00;0.00;;;;;;;16.84;56.21;98650.84;8189768;29;20231;-92
2022/10/19 17:05:28;;;;;;;0.00;0.00;;;;;;;16.84;57.59;98646.44;8190639;29;20254;-89
2022/10/19 17:09:32;;;;;;;0.00;0.00;;;;;;;16.87;57.12;98646.28;8189841;29;20236;-93
2022/10/19 17:13:45;;;;;;;0.00;0.00;;;;;;;16.78;57.10;98647.63;8199264;28;20275;-90
2022/10/19 17:17:48;;;;;;;0.00;0.00;;;;;;;16.80;57.25;98648.38;8189151;29;20239;-89
2022/10/19 17:21:51;;;;;;;0.00;0.00;;;;;;;16.59;56.97;98649.63;8189084;29;20245;-90
2022/10/19 17:25:55;;;;;;;0.00;0.00;;;;;;;16.60;57.70;98648.69;8189261;29;20578;-90
2022/10/19 17:29:58;;;;;;;0.00;0.00;;;;;;;16.57;56.95;98644.50;8189112;29;20239;-90
2022/10/19 17:34:00;;;;;;;0.00;0.00;;;;;;;16.56;57.45;98650.66;8189149;29;20322;-92
2022/10/19 17:38:04;;;;;;;0.00;0.00;;;;;;;16.50;58.10;98652.78;8188959;29;20232;-87
2022/10/19 17:42:08;;;;;;;0.00;0.00;;;;;;;16.39;57.83;98654.25;8189109;29;20232;-87
2022/10/19 17:46:13;;;;;;;0.00;0.00;;;;;;;16.42;57.88;98646.22;8188714;29;20240;-84
2022/10/19 17:50:15;;;;;;;0.00;0.00;;;;;;;16.34;57.75;98660.66;8188263;29;20239;-83
2022/10/19 17:54:18;;;;;;;0.00;0.00;;;;;;;16.25;58.12;98655.94;8189070;29;20239;-89
2022/10/19 17:58:22;;;;;;;0.00;0.00;;;;;;;16.29;58.16;98655.69;8188605;29;20310;-88
2022/10/19 18:02:25;;;;;;;0.00;0.00;;;;;;;16.20;58.51;98651.84;8188377;29;20239;-89
2022/10/19 18:06:30;;;;;;;0.00;0.00;;;;;;;16.18;58.66;98658.91;8188602;29;20425;-89
2022/10/19 18:10:35;;;;;;;0.00;0.00;;;;;;;16.13;58.75;98652.28;8188589;29;20243;-88
2022/10/19 18:14:40;;;;;;;0.00;0.00;;;;;;;16.02;58.65;98650.25;8196191;28;20242;-83
2022/10/19 18:18:47;;;;;;;0.00;0.00;;;;;;;16.00;58.85;98654.72;8187830;29;20242;-87
2022/10/19 18:22:50;;;;;;;0.00;0.00;;;;;;;15.90;59.26;98646.53;8192060;29;20239;-89
2022/10/19 18:26:53;;;;;;;0.00;0.00;;;;;;;15.90;58.79;98650.94;8189156;29;20538;-91
2022/10/19 18:30:57;;;;;;;0.00;0.00;;;;;;;15.91;58.88;98652.59;8189168;29;20290;-89
2022/10/19 18:34:59;;;;;;;0.00;0.00;;;;;;;15.85;58.68;98658.19;8187795;29;20239;-89
2022/10/19 18:39:04;;;;;;;0.00;0.00;;;;;;;15.76;58.57;98669.94;8189932;29;20467;-87
2022/10/19 18:43:07;;;;;;;0.00;0.00;;;;;;;15.72;59.10;98669.25;8188782;29;20279;-81
2022/10/19 18:47:11;;;;;;;0.00;0.00;;;;;;;15.67;58.85;98655.63;8187800;29;20246;-83
2022/10/19 18:51:15;;;;;;;0.00;0.00;;;;;;;15.68;59.32;98652.06;8188281;29;20235;-85
2022/10/19 18:55:18;;;;;;;0.00;0.00;;;;;;;15.63;59.21;98652.31;8187909;29;20235;-86
2022/10/19 18:59:21;;;;;;;0.00;0.00;;;;;;;15.57;58.92;98657.00;8187817;29;20469;-81
2022/10/19 19:03:25;;;;;;;0.00;0.00;;;;;;;15.51;59.34;98646.91;8187223;29;20243;-81
2022/10/19 19:07:28;;;;;;;0.00;0.00;;;;;;;15.43;58.55;98644.72;8187659;29;20235;-80
2022/10/19 19:11:32;;;;;;;0.00;0.00;;;;;;;15.43;58.49;98644.72;8186185;29;20239;-85
2022/10/19 19:15:38;;;;;;;0.00;0.00;;;;;;;15.35;58.76;98641.69;8186403;29;20247;-82
2022/10/19 19:19:43;;;;;;;0.00;0.00;;;;;;;15.31;58.95;98638.38;8186372;29;20239;-82
2022/10/19 19:23:46;;;;;;;0.00;0.00;;;;;;;15.24;58.64;98637.84;8186794;29;20242;-82